Hai Yang Shi You 708 — BFDL — position and weather

sailwx.info

Track history (hours):
 
Tides and Currents Weather Stations Pressure Air Temp Water Temp Dewpoint Dewpoint Depression Visibility Wind Speed Wind Dir Waves Ship Positions

Hai Yang Shi You 708

Last reported at 2015-Apr-18 23:28 UTC. Time now 2015-Apr-18 23:36 UTC.
Position N 22°28' E 113°54'.

Length 105 m; draft 7 m.

Type: Other ship. MMSI: 413303010.

Date/timePositionNaut miles runAvg speedWind from/ knotsBaromVisibWave heightAir tempDewpointWater temp
2015-Apr-18 23:28N 22°28' E 113°54'0 0.0
2015-Apr-18 22:28N 22°28' E 113°54'0 0.0
2015-Apr-18 21:28N 22°28' E 113°54'0 0.0
2015-Apr-18 20:28N 22°28' E 113°54'0 0.0
2015-Apr-18 19:22N 22°28' E 113°54'0 0.0
2015-Apr-18 18:28N 22°28' E 113°54'0 0.0
2015-Apr-18 17:28N 22°28' E 113°54'0 0.0
2015-Apr-18 16:28N 22°28' E 113°54'0 0.0
2015-Apr-18 15:28N 22°28' E 113°54'0 0.0
2015-Apr-18 14:28N 22°28' E 113°54'0 0.0
2015-Apr-18 13:28N 22°28' E 113°54'0 0.0
2015-Apr-18 12:28N 22°28' E 113°54'0 0.0
2015-Apr-18 11:28N 22°28' E 113°54'0 0.0
2015-Apr-18 10:28N 22°28' E 113°54'0 0.0
2015-Apr-18 09:28N 22°28' E 113°54'0 0.0
2015-Apr-18 08:28N 22°28' E 113°54'0 0.0
2015-Apr-18 07:28N 22°28' E 113°54'0 0.0
2015-Apr-18 06:28N 22°28' E 113°54'0 0.0
2015-Apr-18 05:28N 22°28' E 113°54'0 0.2
2015-Apr-18 04:33N 22°28' E 113°54'10 8.8
2015-Apr-18 03:22N 22°19' E 113°48'7 8.5
2015-Apr-18 02:33N 22°12' E 113°48'4 4.4
2015-Apr-18 01:32N 22°08' E 113°46'0 0.0
2015-Apr-18 00:32N 22°08' E 113°46'0 0.0
2015-Apr-17 23:32N 22°08' E 113°46'0 0.0
2015-Apr-17 22:32N 22°08' E 113°46'0 0.0
2015-Apr-17 21:32N 22°08' E 113°46'0 0.0
2015-Apr-17 20:32N 22°08' E 113°46'0 0.1
2015-Apr-17 19:20N 22°08' E 113°46'0 0.0
2015-Apr-17 18:32N 22°08' E 113°46'0 0.0
2015-Apr-17 17:32N 22°08' E 113°46'0 0.0
2015-Apr-17 16:33N 22°08' E 113°46'7 7.2
2015-Apr-17 15:33N 22°01' E 113°44'  
2015-Apr-12 23:12N 21°56' E 113°43'12 0.3
2015-Apr-11 09:29N 22°05' E 113°51'1212.8
2015-Apr-11 08:33N 22°16' E 113°48'1110.8
2015-Apr-11 07:33N 22°26' E 113°52'2 2.2
2015-Apr-11 06:29N 22°28' E 113°54'0 0.0
2015-Apr-11 05:29N 22°28' E 113°54'0 0.0
2015-Apr-11 04:29N 22°28' E 113°54'0 0.0
2015-Apr-11 03:29N 22°28' E 113°54'0 0.0
2015-Apr-11 02:29N 22°28' E 113°54'0 0.0
2015-Apr-11 01:23N 22°28' E 113°54'0 0.0
2015-Apr-11 00:29N 22°28' E 113°54'0 0.0
2015-Apr-10 23:23N 22°28' E 113°54'0 0.0
2015-Apr-10 22:29N 22°28' E 113°54'0 0.0
2015-Apr-10 21:29N 22°28' E 113°54'0 0.0
2015-Apr-10 20:29N 22°28' E 113°54'0 0.0
2015-Apr-10 19:29N 22°28' E 113°54'0 0.0
2015-Apr-10 18:29N 22°28' E 113°54'0 0.0
2015-Apr-10 17:29N 22°28' E 113°54'0 0.0
2015-Apr-10 16:23N 22°28' E 113°54'0 0.0
2015-Apr-10 15:29N 22°28' E 113°54'0 0.0
2015-Apr-10 14:23N 22°28' E 113°54'0 0.0
2015-Apr-10 13:29N 22°28' E 113°54'0 0.0
2015-Apr-10 12:17N 22°28' E 113°54'0 0.0
2015-Apr-10 11:23N 22°28' E 113°54'0 0.0
2015-Apr-10 10:29N 22°28' E 113°54'0 0.0
2015-Apr-10 09:32N 22°28' E 113°54'0 0.0
2015-Apr-10 08:32N 22°28' E 113°54'0 0.0
2015-Apr-10 07:32N 22°28' E 113°54'0 0.0
2015-Apr-10 06:32N 22°28' E 113°54'0 0.0
2015-Apr-10 05:29N 22°28' E 113°54'0 0.0
2015-Apr-10 04:32N 22°28' E 113°54'0 0.0
2015-Apr-10 03:32N 22°28' E 113°54'0 0.0
2015-Apr-10 02:32N 22°28' E 113°54'0 0.0
2015-Apr-10 01:29N 22°28' E 113°54'0 0.0
2015-Apr-10 00:32N 22°28' E 113°54'0 0.0
2015-Apr-09 23:32N 22°28' E 113°54'0 0.0
2015-Apr-09 22:32N 22°28' E 113°54'0 0.0
2015-Apr-09 21:32N 22°28' E 113°54'0 0.0
2015-Apr-09 20:32N 22°28' E 113°54'0 0.0
2015-Apr-09 19:32N 22°28' E 113°54'0 0.0
2015-Apr-09 18:32N 22°28' E 113°54'0 0.0
2015-Apr-09 17:32N 22°28' E 113°54'0 0.0
2015-Apr-09 16:29N 22°28' E 113°54'0 0.0
2015-Apr-09 15:29N 22°28' E 113°54'0 0.0
2015-Apr-09 14:32N 22°28' E 113°54'0 0.0
2015-Apr-09 13:32N 22°28' E 113°54'0 0.0
2015-Apr-09 12:32N 22°28' E 113°54'0 0.0
2015-Apr-09 11:29N 22°28' E 113°54'0 0.0
2015-Apr-09 10:29N 22°28' E 113°54'0 0.0
2015-Apr-09 09:32N 22°28' E 113°54'0 0.0
2015-Apr-09 08:32N 22°28' E 113°54'0 0.0
2015-Apr-09 07:32N 22°28' E 113°54'0 0.0
2015-Apr-09 06:32N 22°28' E 113°54'0 0.0
2015-Apr-09 05:29N 22°28' E 113°54'0 0.0
2015-Apr-09 04:32N 22°28' E 113°54'0 0.0
2015-Apr-09 03:29N 22°28' E 113°54'0 0.0
2015-Apr-09 02:32N 22°28' E 113°54'0 0.0
2015-Apr-09 01:32N 22°28' E 113°54'0 0.0
2015-Apr-09 00:32N 22°28' E 113°54'0 0.0
2015-Apr-08 23:29N 22°28' E 113°54'  
Track history (hours):
 
Tides and Currents Weather Stations Pressure Air Temp Water Temp Dewpoint Dewpoint Depression Visibility Wind Speed Wind Dir Waves Ship Positions

Hai Yang Shi You 708

Last reported at 2015-Apr-18 23:28 UTC. Time now 2015-Apr-18 23:36 UTC.
Position N 22°28' E 113°54'.

Length 105 m; draft 7 m.

Type: Other ship. MMSI: 413303010.

Date/timePositionNaut miles runAvg speedWind from/ knotsBaromVisibWave heightAir tempDewpointWater temp
2015-Apr-18 23:28N 22°28' E 113°54'0 0.0
2015-Apr-18 22:28N 22°28' E 113°54'0 0.0
2015-Apr-18 21:28N 22°28' E 113°54'0 0.0
2015-Apr-18 20:28N 22°28' E 113°54'0 0.0
2015-Apr-18 19:22N 22°28' E 113°54'0 0.0
2015-Apr-18 18:28N 22°28' E 113°54'0 0.0
2015-Apr-18 17:28N 22°28' E 113°54'0 0.0
2015-Apr-18 16:28N 22°28' E 113°54'0 0.0
2015-Apr-18 15:28N 22°28' E 113°54'0 0.0
2015-Apr-18 14:28N 22°28' E 113°54'0 0.0
2015-Apr-18 13:28N 22°28' E 113°54'0 0.0
2015-Apr-18 12:28N 22°28' E 113°54'0 0.0
2015-Apr-18 11:28N 22°28' E 113°54'0 0.0
2015-Apr-18 10:28N 22°28' E 113°54'0 0.0
2015-Apr-18 09:28N 22°28' E 113°54'0 0.0
2015-Apr-18 08:28N 22°28' E 113°54'0 0.0
2015-Apr-18 07:28N 22°28' E 113°54'0 0.0
2015-Apr-18 06:28N 22°28' E 113°54'0 0.0
2015-Apr-18 05:28N 22°28' E 113°54'0 0.2
2015-Apr-18 04:33N 22°28' E 113°54'10 8.8
2015-Apr-18 03:22N 22°19' E 113°48'7 8.5
2015-Apr-18 02:33N 22°12' E 113°48'4 4.4
2015-Apr-18 01:32N 22°08' E 113°46'0 0.0
2015-Apr-18 00:32N 22°08' E 113°46'0 0.0
2015-Apr-17 23:32N 22°08' E 113°46'0 0.0
2015-Apr-17 22:32N 22°08' E 113°46'0 0.0
2015-Apr-17 21:32N 22°08' E 113°46'0 0.0
2015-Apr-17 20:32N 22°08' E 113°46'0 0.1
2015-Apr-17 19:20N 22°08' E 113°46'0 0.0
2015-Apr-17 18:32N 22°08' E 113°46'0 0.0
2015-Apr-17 17:32N 22°08' E 113°46'0 0.0
2015-Apr-17 16:33N 22°08' E 113°46'7 7.2
2015-Apr-17 15:33N 22°01' E 113°44'  
2015-Apr-12 23:12N 21°56' E 113°43'12 0.3
2015-Apr-11 09:29N 22°05' E 113°51'1212.8
2015-Apr-11 08:33N 22°16' E 113°48'1110.8
2015-Apr-11 07:33N 22°26' E 113°52'2 2.2
2015-Apr-11 06:29N 22°28' E 113°54'0 0.0
2015-Apr-11 05:29N 22°28' E 113°54'0 0.0
2015-Apr-11 04:29N 22°28' E 113°54'0 0.0
2015-Apr-11 03:29N 22°28' E 113°54'0 0.0
2015-Apr-11 02:29N 22°28' E 113°54'0 0.0
2015-Apr-11 01:23N 22°28' E 113°54'0 0.0
2015-Apr-11 00:29N 22°28' E 113°54'0 0.0
2015-Apr-10 23:23N 22°28' E 113°54'0 0.0
2015-Apr-10 22:29N 22°28' E 113°54'0 0.0
2015-Apr-10 21:29N 22°28' E 113°54'0 0.0
2015-Apr-10 20:29N 22°28' E 113°54'0 0.0
2015-Apr-10 19:29N 22°28' E 113°54'0 0.0
2015-Apr-10 18:29N 22°28' E 113°54'0 0.0
2015-Apr-10 17:29N 22°28' E 113°54'0 0.0
2015-Apr-10 16:23N 22°28' E 113°54'0 0.0
2015-Apr-10 15:29N 22°28' E 113°54'0 0.0
2015-Apr-10 14:23N 22°28' E 113°54'0 0.0
2015-Apr-10 13:29N 22°28' E 113°54'0 0.0
2015-Apr-10 12:17N 22°28' E 113°54'0 0.0
2015-Apr-10 11:23N 22°28' E 113°54'0 0.0
2015-Apr-10 10:29N 22°28' E 113°54'0 0.0
2015-Apr-10 09:32N 22°28' E 113°54'0 0.0
2015-Apr-10 08:32N 22°28' E 113°54'0 0.0
2015-Apr-10 07:32N 22°28' E 113°54'0 0.0
2015-Apr-10 06:32N 22°28' E 113°54'0 0.0
2015-Apr-10 05:29N 22°28' E 113°54'0 0.0
2015-Apr-10 04:32N 22°28' E 113°54'0 0.0
2015-Apr-10 03:32N 22°28' E 113°54'0 0.0
2015-Apr-10 02:32N 22°28' E 113°54'0 0.0
2015-Apr-10 01:29N 22°28' E 113°54'0 0.0
2015-Apr-10 00:32N 22°28' E 113°54'0 0.0
2015-Apr-09 23:32N 22°28' E 113°54'0 0.0
2015-Apr-09 22:32N 22°28' E 113°54'0 0.0
2015-Apr-09 21:32N 22°28' E 113°54'0 0.0
2015-Apr-09 20:32N 22°28' E 113°54'0 0.0
2015-Apr-09 19:32N 22°28' E 113°54'0 0.0
2015-Apr-09 18:32N 22°28' E 113°54'0 0.0
2015-Apr-09 17:32N 22°28' E 113°54'0 0.0
2015-Apr-09 16:29N 22°28' E 113°54'0 0.0
2015-Apr-09 15:29N 22°28' E 113°54'0 0.0
2015-Apr-09 14:32N 22°28' E 113°54'0 0.0
2015-Apr-09 13:32N 22°28' E 113°54'0 0.0
2015-Apr-09 12:32N 22°28' E 113°54'0 0.0
2015-Apr-09 11:29N 22°28' E 113°54'0 0.0
2015-Apr-09 10:29N 22°28' E 113°54'0 0.0
2015-Apr-09 09:32N 22°28' E 113°54'0 0.0
2015-Apr-09 08:32N 22°28' E 113°54'0 0.0
2015-Apr-09 07:32N 22°28' E 113°54'0 0.0
2015-Apr-09 06:32N 22°28' E 113°54'0 0.0
2015-Apr-09 05:29N 22°28' E 113°54'0 0.0
2015-Apr-09 04:32N 22°28' E 113°54'0 0.0
2015-Apr-09 03:29N 22°28' E 113°54'0 0.0
2015-Apr-09 02:32N 22°28' E 113°54'0 0.0
2015-Apr-09 01:32N 22°28' E 113°54'0 0.0
2015-Apr-09 00:32N 22°28' E 113°54'0 0.0
2015-Apr-08 23:29N 22°28' E 113°54'  

Dump ship's entire track history